Wray, Colorado
Current Conditions -  °F | °C
As of 4:15 PM on Sunday 21 Dec 2014 (Local Time) from K2V5 Reporting Station
Broken Clouds Broken Clouds  
Wind Chill:   Ceiling: 10000
Heat Index:   Visibility: 10mi
Dew Point:   Wind: 9mph
Humidity: 67%   Direction: 280°W
Pressure: 29.52"   Gusts: NA
Location:  40.08°N, 102.22°W
Report Text: K2V5 212315Z AUTO 28008KT 10SM SCT075 BKN100 06/00 A2952 RMK AO2 T00560000
Loading
Personal Weather Stations






























Interactive Weather Map New forecast layout! Learn more

10-Day Weather Forecast

Advertisements
Track Severe Weather on mobile